Time;durP1;ratioP1;P1;durP2;ratioP2;P2;SDS_P1;SDS_P2;PMS_P1;PMS_P2;Temp;Humidity;BMP_temperature;BMP_pressure;BME280_temperature;BME280_humidity;BME280_pressure;Samples;Min_cycle;Max_cycle;Signal;HPM_P1;HPM_P2
2022/06/15 00:01:42;;;;;;;3.80;2.93;;;16.00;99.90;;;;;;5048249;28;20542;-55
2022/06/15 00:04:09;;;;;;;4.77;3.23;;;16.00;99.90;;;;;;5044900;28;20220;-55
2022/06/15 00:06:39;;;;;;;3.73;2.90;;;16.00;99.90;;;;;;5045787;28;20257;-55
2022/06/15 00:09:07;;;;;;;4.60;2.93;;;15.90;99.90;;;;;;5042746;28;20612;-55
2022/06/15 00:11:37;;;;;;;8.40;3.40;;;15.90;99.90;;;;;;5048064;28;20582;-55
2022/06/15 00:14:11;;;;;;;7.57;2.90;;;15.90;99.90;;;;;;5045726;28;20227;-55
2022/06/15 00:16:38;;;;;;;5.50;3.20;;;15.80;99.90;;;;;;5046357;28;20246;-54
2022/06/15 00:19:05;;;;;;;3.47;3.17;;;15.90;99.90;;;;;;5049410;28;20629;-55
2022/06/15 00:21:32;;;;;;;7.40;3.77;;;15.80;99.90;;;;;;5027648;28;20510;-55
2022/06/15 00:23:59;;;;;;;6.17;3.70;;;15.80;99.90;;;;;;5041847;28;20290;-55
2022/06/15 00:26:27;;;;;;;4.17;3.27;;;15.90;99.90;;;;;;5034678;28;20263;-54
2022/06/15 00:28:54;;;;;;;6.30;3.23;;;15.80;99.90;;;;;;5045669;28;20195;-56
2022/06/15 00:31:21;;;;;;;4.33;3.13;;;15.80;99.90;;;;;;5042184;28;20684;-55
2022/06/15 00:33:49;;;;;;;4.73;3.40;;;15.80;99.90;;;;;;5048440;28;20244;-56
2022/06/15 00:36:19;;;;;;;4.90;3.23;;;15.70;99.90;;;;;;5044957;28;20235;-55
2022/06/15 00:38:51;;;;;;;4.60;3.37;;;15.60;99.90;;;;;;5050426;28;20677;-56
2022/06/15 00:41:22;;;;;;;4.60;3.47;;;15.60;99.90;;;;;;5040018;28;20205;-55
2022/06/15 00:43:56;;;;;;;4.50;3.47;;;15.60;99.90;;;;;;5051018;28;20208;-55
2022/06/15 00:46:40;;;;;;;4.33;3.30;;;15.70;99.90;;;;;;5046543;28;20519;-55
2022/06/15 00:49:20;;;;;;;3.53;3.20;;;15.80;99.90;;;;;;5050428;28;20373;-59
2022/06/15 00:51:51;;;;;;;4.17;2.83;;;15.70;99.90;;;;;;5044743;28;20322;-59
2022/06/15 00:54:18;;;;;;;4.47;3.20;;;15.80;99.90;;;;;;5044208;28;20354;-55
2022/06/15 00:56:45;;;;;;;5.10;3.53;;;15.90;99.90;;;;;;5042992;28;20400;-56
2022/06/15 00:59:28;;;;;;;6.10;3.40;;;15.80;99.90;;;;;;5051228;28;20617;-55
2022/06/15 01:01:55;;;;;;;3.47;3.17;;;15.60;99.90;;;;;;5047148;28;20199;-55
2022/06/15 01:04:23;;;;;;;8.10;3.33;;;15.60;99.90;;;;;;5051153;28;20246;-56
2022/06/15 01:07:15;;;;;;;5.53;3.27;;;15.60;99.90;;;;;;5049827;28;20208;-55
2022/06/15 01:10:12;;;;;;;6.97;3.33;;;15.60;99.90;;;;;;5052060;28;20393;-55
2022/06/15 01:12:53;;;;;;;3.30;3.00;;;15.50;99.90;;;;;;5041556;28;20664;-56
2022/06/15 01:15:48;;;;;;;6.73;3.50;;;15.70;99.90;;;;;;5050105;28;20215;-55
2022/06/15 01:18:32;;;;;;;5.80;3.90;;;15.60;99.90;;;;;;5052663;28;20262;-53
2022/06/15 01:21:31;;;;;;;6.73;3.33;;;15.40;99.90;;;;;;5049044;28;20694;-55
2022/06/15 01:24:32;;;;;;;5.23;3.17;;;15.60;99.90;;;;;;5011989;28;20206;-55
2022/06/15 01:27:24;;;;;;;3.73;3.03;;;15.50;99.90;;;;;;5046338;28;21423;-56
2022/06/15 01:30:12;;;;;;;5.33;3.43;;;15.40;99.90;;;;;;5053258;28;20634;-55
2022/06/15 01:32:49;;;;;;;5.37;3.73;;;15.40;99.90;;;;;;5048083;28;20239;-55
2022/06/15 01:35:24;;;;;;;6.83;3.60;;;15.30;99.90;;;;;;5047737;28;20910;-56
2022/06/15 01:38:22;;;;;;;5.73;3.50;;;15.40;99.90;;;;;;5048438;28;21060;-55
2022/06/15 01:41:01;;;;;;;6.07;3.40;;;15.40;99.90;;;;;;5031048;28;20306;-55
2022/06/15 01:43:33;;;;;;;5.33;3.90;;;15.50;99.90;;;;;;5045789;28;20234;-55
2022/06/15 01:46:02;;;;;;;4.10;3.27;;;15.40;99.90;;;;;;5049144;28;20198;-55
2022/06/15 01:48:31;;;;;;;5.67;3.43;;;15.30;99.90;;;;;;5027890;28;20815;-53
2022/06/15 01:51:08;;;;;;;4.30;3.27;;;15.40;99.90;;;;;;5003926;28;1102992;-55
2022/06/15 01:53:39;;;;;;;5.97;3.63;;;15.40;99.90;;;;;;5046936;28;20224;-55
2022/06/15 01:56:11;;;;;;;6.20;3.53;;;15.30;99.90;;;;;;5050070;28;20837;-54
2022/06/15 01:58:41;;;;;;;4.30;3.47;;;15.40;99.90;;;;;;5044922;28;20207;-56
2022/06/15 02:01:47;;;;;;;3.30;3.00;;;15.30;99.90;;;;;;5048470;28;20678;-56
2022/06/15 02:04:44;;;;;;;4.97;3.50;;;15.30;99.90;;;;;;5023688;28;20246;-56
2022/06/15 02:07:23;;;;;;;7.00;3.70;;;15.30;99.90;;;;;;5039814;28;20693;-56
2022/06/15 02:09:59;;;;;;;5.77;3.60;;;15.30;99.90;;;;;;5048475;28;20277;-55
2022/06/15 02:12:49;;;;;;;5.80;3.73;;;15.30;99.90;;;;;;5043743;28;20234;-56
2022/06/15 02:15:25;;;;;;;6.47;3.40;;;15.40;99.90;;;;;;5043196;28;20229;-61
2022/06/15 02:17:54;;;;;;;6.17;3.40;;;15.30;99.90;;;;;;5050555;28;20784;-56
2022/06/15 02:20:28;;;;;;;6.47;3.43;;;15.20;99.90;;;;;;5047668;28;20252;-55
2022/06/15 02:22:59;;;;;;;6.00;3.63;;;15.20;99.90;;;;;;5049557;28;20657;-55
2022/06/15 02:25:31;;;;;;;4.93;3.47;;;15.10;99.90;;;;;;5049247;28;20290;-56
2022/06/15 02:28:01;;;;;;;6.30;3.20;;;15.00;99.90;;;;;;5046444;28;20209;-56
2022/06/15 02:30:30;;;;;;;5.53;3.60;;;15.10;99.90;;;;;;5046772;28;20218;-55
2022/06/15 02:33:10;;;;;;;4.93;3.57;;;15.00;99.90;;;;;;5046675;28;20231;-56
2022/06/15 02:35:38;;;;;;;5.43;3.20;;;15.00;99.90;;;;;;5053052;28;20218;-56
2022/06/15 02:38:05;;;;;;;9.43;3.53;;;14.90;99.90;;;;;;5050062;28;20710;-55
2022/06/15 02:40:31;;;;;;;7.13;3.37;;;14.90;99.90;;;;;;5048469;28;20198;-56
2022/06/15 02:43:01;;;;;;;5.30;3.10;;;15.00;99.90;;;;;;5046796;28;20301;-55
2022/06/15 02:45:34;;;;;;;5.03;3.47;;;14.90;99.90;;;;;;5036129;28;20759;-55
2022/06/15 02:48:04;;;;;;;6.10;3.10;;;14.90;99.90;;;;;;5044755;28;20235;-55
2022/06/15 02:50:37;;;;;;;3.57;3.13;;;14.90;99.90;;;;;;5048631;28;20663;-55
2022/06/15 02:53:08;;;;;;;7.40;3.90;;;14.80;99.90;;;;;;5043092;28;20344;-56
2022/06/15 02:55:37;;;;;;;3.93;3.53;;;14.80;99.90;;;;;;5052555;28;20308;-56
2022/06/15 02:58:10;;;;;;;6.50;4.37;;;14.70;99.90;;;;;;5041409;28;20210;-56
2022/06/15 03:00:38;;;;;;;5.43;3.43;;;14.70;99.90;;;;;;5050047;28;20211;-54
2022/06/15 03:03:06;;;;;;;4.77;3.30;;;14.70;99.90;;;;;;5052222;28;20270;-56
2022/06/15 03:05:33;;;;;;;3.63;3.33;;;14.70;99.90;;;;;;5049629;28;20616;-56
2022/06/15 03:08:00;;;;;;;5.80;3.10;;;14.70;99.90;;;;;;5047155;28;20231;-55
2022/06/15 03:10:27;;;;;;;7.53;3.60;;;14.60;99.90;;;;;;5047664;28;20205;-56
2022/06/15 03:12:54;;;;;;;7.17;4.23;;;14.60;99.90;;;;;;5045398;28;20209;-55
2022/06/15 03:15:21;;;;;;;6.67;3.60;;;14.60;99.90;;;;;;5049771;28;20218;-55
2022/06/15 03:17:50;;;;;;;6.30;4.07;;;14.70;99.90;;;;;;5046015;28;20735;-56
2022/06/15 03:20:17;;;;;;;4.77;4.07;;;14.60;99.90;;;;;;5046654;28;20595;-55
2022/06/15 03:22:44;;;;;;;7.53;4.33;;;14.70;99.90;;;;;;5050744;28;20258;-57
2022/06/15 03:25:11;;;;;;;5.03;4.53;;;14.70;99.90;;;;;;5045811;28;20640;-55
2022/06/15 03:27:38;;;;;;;8.07;5.00;;;14.60;65.30;;;;;;5045722;28;20591;-56
2022/06/15 03:30:07;;;;;;;10.10;5.80;;;14.60;99.90;;;;;;5047644;28;20207;-55
2022/06/15 03:32:34;;;;;;;8.07;5.40;;;14.50;48.80;;;;;;5045714;28;20204;-55
2022/06/15 03:35:02;;;;;;;8.17;5.23;;;14.60;99.90;;;;;;5052788;28;20236;-56
2022/06/15 03:37:29;;;;;;;7.57;4.90;;;14.50;99.90;;;;;;5046254;28;20230;-55
2022/06/15 03:39:56;;;;;;;6.67;4.33;;;14.50;99.90;;;;;;5044760;28;20383;-56
2022/06/15 03:42:25;;;;;;;8.63;4.50;;;14.60;99.90;;;;;;5046008;28;20308;-55
2022/06/15 03:44:53;;;;;;;7.37;4.73;;;14.60;99.90;;;;;;5040363;28;20641;-56
2022/06/15 03:47:20;;;;;;;6.73;4.80;;;14.60;99.90;;;;;;5045766;28;20198;-55
2022/06/15 03:49:49;;;;;;;9.40;4.63;;;14.60;99.90;;;;;;5044469;28;20313;-54
2022/06/15 03:52:21;;;;;;;10.27;4.53;;;14.50;99.90;;;;;;5047362;28;20233;-54
2022/06/15 03:54:48;;;;;;;11.13;4.60;;;14.50;99.90;;;;;;5051170;28;20583;-56
2022/06/15 03:57:18;;;;;;;7.17;4.27;;;14.60;99.90;;;;;;5044976;28;20291;-55
2022/06/15 03:59:45;;;;;;;5.97;3.97;;;14.60;85.50;;;;;;5047712;28;20213;-55
2022/06/15 04:02:12;;;;;;;4.60;4.10;;;14.40;77.30;;;;;;5044771;28;20203;-55
2022/06/15 04:04:39;;;;;;;6.90;4.10;;;14.40;50.90;;;;;;5044861;28;20201;-55
2022/06/15 04:08:34;;;;;;;5.77;3.70;;;14.40;92.30;;;;;;5050455;28;20212;-56
2022/06/15 04:09:57;;;;;;;7.67;3.80;;;14.40;71.60;;;;;;5048141;28;20232;-55
2022/06/15 04:12:24;;;;;;;8.33;4.13;;;14.40;41.20;;;;;;5041989;28;20320;-55
2022/06/15 04:14:51;;;;;;;6.50;3.87;;;14.50;12.10;;;;;;5045348;28;20221;-55
2022/06/15 04:17:18;;;;;;;6.10;4.67;;;14.30;38.50;;;;;;5046904;28;20292;-55
2022/06/15 04:20:31;;;;;;;7.07;4.00;;;14.40;14.30;;;;;;5042129;28;20300;-56
2022/06/15 04:22:31;;;;;;;5.67;4.03;;;14.50;9.50;;;;;;5047616;28;20254;-55
2022/06/15 04:24:58;;;;;;;6.57;3.67;;;14.50;1.70;;;;;;5042392;28;20681;-56
2022/06/15 04:27:25;;;;;;;5.20;3.57;;;14.60;2.60;;;;;;5043000;28;20300;-55
2022/06/15 04:29:52;;;;;;;4.20;3.77;;;14.70;8.00;;;;;;5046626;28;20307;-55
2022/06/15 04:32:19;;;;;;;6.00;3.77;;;14.70;1.00;;;;;;5046019;28;20254;-54
2022/06/15 04:34:46;;;;;;;5.47;3.73;;;14.60;1.00;;;;;;5047590;28;20395;-55
2022/06/15 04:37:12;;;;;;;4.87;4.10;;;14.60;17.80;;;;;;5053400;28;20230;-55
2022/06/15 04:39:39;;;;;;;6.00;3.77;;;14.70;5.50;;;;;;5042888;28;20275;-56
2022/06/15 04:42:07;;;;;;;5.63;3.83;;;14.70;1.00;;;;;;5043354;28;20197;-55
2022/06/15 04:44:34;;;;;;;5.60;3.63;;;14.80;1.70;;;;;;5060026;28;20281;-56
2022/06/15 04:47:02;;;;;;;5.40;3.80;;;14.90;11.40;;;;;;5043504;28;20716;-56
2022/06/15 04:49:29;;;;;;;7.00;3.60;;;14.90;10.60;;;;;;5049494;28;20673;-55
2022/06/15 04:51:55;;;;;;;7.97;4.23;;;14.80;5.00;;;;;;5040231;28;20356;-55
2022/06/15 04:54:23;;;;;;;6.00;4.00;;;14.90;13.40;;;;;;5041358;28;20225;-56
2022/06/15 04:56:49;;;;;;;10.63;5.40;;;15.00;1.00;;;;;;5042482;28;20297;-56
2022/06/15 04:59:17;;;;;;;7.40;4.57;;;15.10;1.00;;;;;;5045629;28;20549;-56
2022/06/15 05:01:44;;;;;;;6.67;3.97;;;15.10;1.00;;;;;;5044034;28;20208;-56
2022/06/15 05:04:11;;;;;;;7.23;4.20;;;15.00;1.00;;;;;;5042095;28;20577;-55
2022/06/15 05:06:40;;;;;;;6.47;4.20;;;15.20;1.00;;;;;;5033320;28;20209;-57
2022/06/15 05:09:11;;;;;;;5.50;3.67;;;15.40;1.00;;;;;;5048825;28;20288;-55
2022/06/15 05:11:38;;;;;;;5.73;3.83;;;15.50;1.00;;;;;;5040530;28;20559;-55
2022/06/15 05:14:05;;;;;;;4.80;4.00;;;15.50;1.00;;;;;;5043088;28;20275;-56
2022/06/15 05:16:33;;;;;;;5.87;4.00;;;15.60;1.00;;;;;;5045394;28;20651;-55
2022/06/15 05:19:00;;;;;;;6.70;4.03;;;15.60;1.00;;;;;;5044982;28;20672;-56
2022/06/15 05:21:28;;;;;;;5.40;4.17;;;15.60;1.00;;;;;;5045046;28;20204;-56
2022/06/15 05:23:55;;;;;;;5.27;3.73;;;15.70;1.00;;;;;;5045063;28;20226;-57
2022/06/15 05:26:24;;;;;;;8.53;4.40;;;15.80;1.00;;;;;;5042290;28;20286;-55
2022/06/15 05:28:52;;;;;;;4.97;4.47;;;15.90;1.00;;;;;;5044903;28;20217;-56
2022/06/15 05:31:21;;;;;;;9.73;4.53;;;16.10;1.00;;;;;;5040983;28;20223;-55
2022/06/15 05:33:53;;;;;;;5.03;3.83;;;16.00;1.00;;;;;;5045969;28;20973;-56
2022/06/15 05:36:30;;;;;;;6.17;4.20;;;16.10;1.00;;;;;;5044229;28;20217;-56
2022/06/15 05:38:57;;;;;;;7.87;4.60;;;16.20;1.00;;;;;;5048303;28;20223;-56
2022/06/15 05:41:24;;;;;;;8.40;4.23;;;16.20;1.00;;;;;;5038841;28;20260;-55
2022/06/15 05:46:58;;;;;;;6.37;4.20;;;16.70;1.00;;;;;;5026531;28;20203;-56
2022/06/15 05:49:25;;;;;;;8.10;4.37;;;16.60;1.00;;;;;;5047705;28;20235;-56
2022/06/15 05:51:52;;;;;;;5.87;3.73;;;16.80;1.00;;;;;;5044910;28;20312;-55
2022/06/15 05:54:19;;;;;;;6.37;4.20;;;16.90;1.00;;;;;;5047224;28;20671;-56
2022/06/15 05:56:47;;;;;;;5.60;4.30;;;17.10;1.00;;;;;;5060969;28;20594;-55
2022/06/15 05:59:14;;;;;;;7.57;4.30;;;17.00;1.00;;;;;;5048671;28;20288;-55
2022/06/15 06:01:42;;;;;;;5.27;4.10;;;17.00;1.00;;;;;;5041835;28;20251;-56
2022/06/15 06:04:16;;;;;;;5.10;3.80;;;17.00;1.00;;;;;;5048248;28;20299;-56
2022/06/15 06:06:43;;;;;;;6.87;4.40;;;17.20;1.00;;;;;;5049673;28;20224;-55
2022/06/15 06:09:10;;;;;;;11.50;4.93;;;17.20;1.00;;;;;;5050846;28;20206;-56
2022/06/15 06:11:37;;;;;;;10.60;5.20;;;17.20;1.00;;;;;;5048491;28;20215;-56
2022/06/15 06:14:04;;;;;;;6.70;4.70;;;17.30;1.00;;;;;;5052278;28;20250;-56
2022/06/15 06:16:31;;;;;;;10.67;4.83;;;17.40;1.00;;;;;;5043884;28;20225;-54
2022/06/15 06:18:58;;;;;;;9.03;4.97;;;17.50;1.00;;;;;;5032657;28;21143;-56
2022/06/15 06:21:25;;;;;;;40.87;9.30;;;17.70;1.00;;;;;;5043462;28;20204;-58
2022/06/15 06:23:52;;;;;;;49.97;8.50;;;17.80;1.00;;;;;;5044239;28;20304;-56
2022/06/15 06:26:26;;;;;;;23.70;5.60;;;17.90;1.00;;;;;;5035332;28;20724;-53
2022/06/15 06:28:53;;;;;;;24.80;5.77;;;18.00;1.00;;;;;;5037713;28;20675;-56
2022/06/15 06:31:20;;;;;;;9.00;4.77;;;18.20;1.00;;;;;;5037098;28;20230;-55
2022/06/15 06:33:48;;;;;;;7.47;4.80;;;18.20;1.00;;;;;;5040761;28;20451;-55
2022/06/15 06:36:32;;;;;;;9.20;4.90;;;18.50;1.00;;;;;;5045929;28;20682;-55
2022/06/15 06:39:01;;;;;;;8.63;4.57;;;18.60;1.00;;;;;;5044267;28;20365;-54
2022/06/15 06:41:30;;;;;;;8.70;3.77;;;18.80;1.00;;;;;;5045707;28;20289;-56
2022/06/15 06:44:03;;;;;;;7.00;4.40;;;18.80;1.00;;;;;;5047341;28;20299;-54
2022/06/15 06:46:32;;;;;;;5.20;3.97;;;18.90;1.00;;;;;;5045492;28;20207;-56
2022/06/15 06:48:59;;;;;;;7.60;4.10;;;19.20;1.00;;;;;;5049079;28;20386;-57
2022/06/15 06:51:27;;;;;;;6.03;4.27;;;19.30;1.00;;;;;;5049228;28;20235;-55
2022/06/15 06:53:54;;;;;;;6.33;4.23;;;19.50;1.00;;;;;;5042339;28;20358;-54
2022/06/15 06:56:21;;;;;;;6.70;3.97;;;19.60;1.00;;;;;;5036458;28;20216;-56
2022/06/15 06:58:47;;;;;;;6.57;4.10;;;19.70;1.00;;;;;;5048228;28;20195;-56
2022/06/15 07:01:14;;;;;;;4.53;3.80;;;20.00;1.00;;;;;;5042180;28;20204;-54
2022/06/15 07:03:41;;;;;;;7.60;3.97;;;19.90;1.00;;;;;;5041268;28;20223;-55
2022/06/15 07:06:09;;;;;;;8.83;3.63;;;20.00;1.00;;;;;;5044411;28;20211;-55
2022/06/15 07:08:38;;;;;;;11.40;3.93;;;20.10;1.00;;;;;;5035272;28;20282;-56
2022/06/15 07:11:13;;;;;;;12.27;3.80;;;20.40;1.00;;;;;;5041130;28;20381;-55
2022/06/15 07:13:40;;;;;;;11.03;3.80;;;21.20;1.00;;;;;;5048180;28;20393;-54
2022/06/15 07:16:09;;;;;;;5.23;2.83;;;22.40;1.00;;;;;;5050809;28;20211;-56
2022/06/15 07:18:37;;;;;;;3.93;2.47;;;22.60;99.90;;;;;;5046678;28;20266;-53
2022/06/15 07:21:11;;;;;;;11.67;4.03;;;23.40;1.00;;;;;;5050317;28;20200;-54
2022/06/15 07:23:40;;;;;;;7.07;3.13;;;23.80;99.90;;;;;;5047341;28;20218;-53
2022/06/15 07:26:11;;;;;;;4.50;2.60;;;23.70;1.00;;;;;;5047158;28;20599;-53
2022/06/15 07:28:39;;;;;;;4.27;2.30;;;23.00;99.90;;;;;;5048794;28;20206;-54
2022/06/15 07:31:20;;;;;;;8.47;2.33;;;24.40;1.00;;;;;;5019191;28;20216;-54
2022/06/15 07:33:47;;;;;;;6.70;2.10;;;25.10;1.00;;;;;;5048936;28;20304;-52
2022/06/15 07:36:14;;;;;;;7.00;2.93;;;25.70;1.00;;;;;;5043680;28;20215;-56
2022/06/15 07:38:41;;;;;;;5.00;2.57;;;25.50;1.00;;;;;;5047877;28;20286;-53
2022/06/15 07:41:08;;;;;;;6.07;2.83;;;25.00;1.00;;;;;;5046782;28;20231;-55
2022/06/15 07:43:35;;;;;;;3.83;2.90;;;25.90;1.00;;;;;;5045958;28;20694;-54
2022/06/15 07:46:02;;;;;;;8.10;2.67;;;24.80;1.00;;;;;;5041892;28;20195;-55
2022/06/15 07:51:29;;;;;;;6.27;3.80;;;26.00;1.00;;;;;;5054730;28;20341;-55
2022/06/15 07:53:57;;;;;;;5.27;2.90;;;26.80;1.00;;;;;;5054833;28;20642;-56
2022/06/15 07:56:25;;;;;;;4.27;2.87;;;26.70;1.00;;;;;;5052177;28;20274;-54
2022/06/15 07:58:53;;;;;;;5.32;3.10;;;26.30;53.20;;;;;;5053406;28;20206;-56
2022/06/15 08:01:20;;;;;;;5.60;2.80;;;26.20;1.00;;;;;;5039532;28;20211;-56
2022/06/15 08:03:48;;;;;;;8.45;2.90;;;26.50;1.00;;;;;;5054437;28;20210;-55
2022/06/15 08:06:15;;;;;;;6.70;3.30;;;26.70;29.10;;;;;;5053908;28;20230;-60
2022/06/15 08:08:42;;;;;;;6.45;3.22;;;26.00;1.00;;;;;;5039577;28;20679;-55
2022/06/15 08:11:10;;;;;;;17.10;3.97;;;25.10;1.00;;;;;;5053826;28;20674;-56
2022/06/15 08:13:42;;;;;;;5.70;3.20;;;25.90;1.00;;;;;;5052637;28;20738;-55
2022/06/15 08:16:10;;;;;;;13.57;3.30;;;25.30;1.00;;;;;;5053368;28;20212;-54
2022/06/15 08:18:46;;;;;;;14.40;3.17;;;25.70;1.00;;;;;;5051805;28;20215;-56
2022/06/15 08:21:21;;;;;;;13.88;3.40;;;26.10;1.00;;;;;;5054774;28;20328;-55
2022/06/15 08:23:50;;;;;;;21.65;4.55;;;26.00;1.00;;;;;;5053281;28;20611;-55
2022/06/15 08:26:21;;;;;;;9.32;2.70;;;26.20;1.00;;;;;;5054495;28;20596;-56
2022/06/15 08:28:51;;;;;;;3.80;1.70;;;25.70;1.00;;;;;;5052645;28;20260;-56
2022/06/15 08:31:18;;;;;;;7.80;2.75;;;26.90;11.10;;;;;;5049525;28;20736;-55
2022/06/15 08:33:46;;;;;;;17.00;3.80;;;27.30;99.90;;;;;;5052300;28;20246;-55
2022/06/15 08:36:18;;;;;;;4.55;2.35;;;27.30;99.90;;;;;;5054080;28;20687;-56
2022/06/15 08:38:45;;;;;;;6.07;2.72;;;27.10;99.90;;;;;;5052750;28;20333;-56
2022/06/15 08:41:35;;;;;;;16.58;3.65;;;27.40;99.90;;;;;;5054658;28;20204;-54
2022/06/15 08:44:28;;;;;;;6.97;2.63;;;27.50;99.90;;;;;;5038600;28;20208;-55
2022/06/15 08:47:34;;;;;;;5.10;2.38;;;27.10;99.90;;;;;;5050764;28;20286;-55
2022/06/15 08:50:13;;;;;;;8.48;2.63;;;27.10;99.90;;;;;;5052212;28;20222;-56
2022/06/15 08:52:49;;;;;;;8.97;2.53;;;25.40;99.90;;;;;;5055456;28;20246;-56
2022/06/15 08:55:37;;;;;;;4.40;2.10;;;26.90;99.90;;;;;;5038131;28;20207;-56
2022/06/15 08:58:38;;;;;;;4.70;1.93;;;25.20;1.00;;;;;;5052139;28;20247;-55
2022/06/15 09:01:29;;;;;;;8.33;3.07;;;27.10;99.90;;;;;;5037924;28;20634;-56
2022/06/15 09:04:13;;;;;;;3.27;2.10;;;27.70;1.00;;;;;;5039848;28;20343;-55
2022/06/15 09:06:57;;;;;;;6.47;2.47;;;26.80;99.90;;;;;;5049775;28;20591;-56
2022/06/15 09:10:00;;;;;;;4.73;1.93;;;25.50;1.00;;;;;;5053133;28;20233;-56
2022/06/15 09:13:20;;;;;;;3.90;2.10;;;26.40;1.00;;;;;;5051594;28;20282;-55
2022/06/15 09:16:11;;;;;;;4.18;2.00;;;26.50;1.00;;;;;;5011052;28;20736;-55
2022/06/15 09:18:50;;;;;;;3.70;1.90;;;26.40;99.90;;;;;;5055500;28;20771;-56
2022/06/15 09:21:25;;;;;;;4.20;2.08;;;25.20;99.90;;;;;;5056283;28;20709;-55
2022/06/15 09:24:03;;;;;;;4.27;2.00;;;24.40;9.30;;;;;;5057829;28;20215;-54
2022/06/15 09:26:32;;;;;;;6.50;2.17;;;25.10;1.00;;;;;;5058026;28;20208;-54
2022/06/15 09:29:12;;;;;;;3.33;2.40;;;26.10;99.90;;;;;;5054699;28;20219;-54
2022/06/15 09:31:43;;;;;;;12.83;3.60;;;24.70;33.50;;;;;;5039263;28;20199;-55
2022/06/15 09:34:16;;;;;;;3.73;2.07;;;26.30;99.90;;;;;;5040852;28;20200;-54
2022/06/15 09:36:48;;;;;;;3.67;2.00;;;26.50;99.90;;;;;;5053609;28;20265;-54
2022/06/15 09:39:17;;;;;;;14.20;2.97;;;26.40;99.90;;;;;;5058886;28;20196;-56
2022/06/15 09:41:51;;;;;;;8.23;2.43;;;26.20;99.90;;;;;;5024603;28;20635;-53
2022/06/15 09:44:24;;;;;;;12.80;2.78;;;25.70;99.90;;;;;;5054059;28;20192;-56
2022/06/15 09:47:25;;;;;;;5.22;2.08;;;25.70;56.30;;;;;;5053611;28;20206;-56
2022/06/15 09:50:01;;;;;;;6.38;1.95;;;26.80;99.90;;;;;;5054719;28;20217;-56
2022/06/15 09:52:37;;;;;;;6.57;2.37;;;26.50;99.90;;;;;;5039992;28;20239;-54
2022/06/15 09:55:14;;;;;;;5.18;2.15;;;26.20;99.90;;;;;;5054156;28;20282;-53
2022/06/15 09:57:41;;;;;;;5.68;2.22;;;25.10;18.70;;;;;;5054864;28;20264;-56
2022/06/15 10:00:14;;;;;;;4.90;1.88;;;25.80;99.90;;;;;;5054793;28;20204;-55
2022/06/15 10:02:45;;;;;;;4.97;2.40;;;25.80;99.90;;;;;;5052472;28;20652;-55
2022/06/15 10:05:37;;;;;;;5.47;2.03;;;24.90;85.60;;;;;;5053273;28;20225;-55
2022/06/15 10:08:08;;;;;;;5.30;2.08;;;25.70;99.90;;;;;;5052675;28;20265;-56
2022/06/15 10:10:43;;;;;;;4.55;2.00;;;25.60;61.90;;;;;;5055083;28;20344;-56
2022/06/15 10:13:15;;;;;;;5.75;1.85;;;25.50;89.50;;;;;;5056577;28;20204;-55
2022/06/15 10:15:42;;;;;;;3.95;1.90;;;25.80;99.90;;;;;;5053681;28;20336;-55
2022/06/15 10:18:30;;;;;;;5.43;2.17;;;26.30;99.90;;;;;;5056184;28;20234;-55
2022/06/15 10:21:05;;;;;;;3.60;1.90;;;25.80;99.90;;;;;;5054962;28;20200;-56
2022/06/15 10:23:53;;;;;;;5.88;2.17;;;25.60;84.20;;;;;;5055845;28;20666;-54
2022/06/15 10:26:38;;;;;;;4.53;2.20;;;26.20;99.90;;;;;;5055577;28;20330;-56
2022/06/15 10:29:23;;;;;;;3.63;1.98;;;25.90;99.90;;;;;;5055559;28;20216;-55
2022/06/15 10:32:22;;;;;;;2.90;2.13;;;25.80;99.90;;;;;;5054727;28;20616;-55
2022/06/15 10:35:02;;;;;;;4.10;2.03;;;25.10;99.90;;;;;;5013419;28;20690;-54
2022/06/15 10:37:46;;;;;;;5.90;2.63;;;24.80;97.90;;;;;;5055949;28;20223;-55
2022/06/15 10:40:28;;;;;;;4.20;1.80;;;25.00;32.00;;;;;;5071619;28;20243;-54
2022/06/15 10:43:18;;;;;;;5.83;2.30;;;25.50;99.90;;;;;;5053970;28;20196;-54
2022/06/15 10:45:59;;;;;;;5.00;2.00;;;26.30;99.90;;;;;;5056889;28;20727;-54
2022/06/15 10:48:49;;;;;;;6.40;1.70;;;26.30;99.90;;;;;;5056152;28;20231;-56
2022/06/15 10:51:29;;;;;;;6.27;2.20;;;25.70;99.90;;;;;;5056090;28;20568;-55
2022/06/15 10:54:30;;;;;;;5.17;2.83;;;25.50;99.90;;;;;;5057449;28;20593;-54
2022/06/15 11:03:25;;;;;;;5.30;2.00;;;26.90;99.90;;;;;;5055919;28;20345;-54
2022/06/15 11:05:55;;;;;;;8.47;2.10;;;27.80;99.90;;;;;;5054947;28;20445;-55
2022/06/15 11:08:26;;;;;;;4.70;1.40;;;28.00;99.90;;;;;;5056290;28;20214;-56
2022/06/15 11:11:12;;;;;;;6.00;2.17;;;27.40;99.90;;;;;;5038526;28;20311;-56
2022/06/15 11:13:51;;;;;;;7.80;2.73;;;28.00;99.90;;;;;;5053037;28;20245;-56
2022/06/15 11:19:13;;;;;;;20.37;4.07;;;27.40;99.90;;;;;;5053903;28;20650;-55
2022/06/15 11:21:55;;;;;;;6.00;2.60;;;28.00;99.90;;;;;;5049595;28;20344;-56
2022/06/15 11:24:32;;;;;;;3.20;1.70;;;27.70;99.90;;;;;;5056881;28;20306;-55
2022/06/15 11:27:39;;;;;;;3.17;1.77;;;27.50;99.90;;;;;;5054324;28;20724;-54
2022/06/15 11:30:28;;;;;;;5.87;1.87;;;27.60;99.90;;;;;;5010169;28;20219;-55
2022/06/15 11:33:07;;;;;;;4.87;1.73;;;28.90;99.90;;;;;;5040769;28;20277;-55
2022/06/15 11:35:39;;;;;;;4.13;1.73;;;29.60;99.90;;;;;;5038633;28;20702;-55
2022/06/15 11:38:38;;;;;;;11.03;2.93;;;30.20;99.90;;;;;;5070664;28;20261;-54
2022/06/15 11:41:41;;;;;;;7.57;2.60;;;29.70;99.90;;;;;;5054754;28;20204;-55
2022/06/15 11:44:34;;;;;;;3.03;1.50;;;28.90;99.90;;;;;;5055295;28;20206;-54
2022/06/15 11:47:16;;;;;;;3.67;2.00;;;29.80;99.90;;;;;;5044430;28;20238;-54
2022/06/15 11:49:55;;;;;;;10.70;2.30;;;29.80;99.90;;;;;;5052623;28;20258;-55
2022/06/15 11:52:51;;;;;;;3.33;1.90;;;29.50;99.90;;;;;;5055522;28;20281;-55
2022/06/15 11:55:44;;;;;;;2.85;1.85;;;29.00;99.90;;;;;;5053232;28;20278;-55
2022/06/15 11:58:42;;;;;;;2.97;2.00;;;30.60;99.90;;;;;;5053105;28;20207;-54
2022/06/15 12:01:19;;;;;;;4.18;1.85;;;30.00;99.90;;;;;;5041881;28;20750;-56
2022/06/15 12:03:55;;;;;;;2.38;1.70;;;29.60;99.90;;;;;;5049715;28;20631;-54
2022/06/15 12:06:30;;;;;;;3.53;1.85;;;29.00;99.90;;;;;;5031707;28;20615;-54
2022/06/15 12:09:20;;;;;;;6.95;2.40;;;30.10;99.90;;;;;;5050198;28;20203;-55
2022/06/15 12:15:20;;;;;;;3.83;1.60;;;28.80;99.90;;;;;;5045655;28;20207;-55
2022/06/15 12:17:56;;;;;;;4.33;1.90;;;28.50;99.90;;;;;;5024913;28;20215;-56
2022/06/15 12:20:31;;;;;;;4.47;1.93;;;28.70;99.90;;;;;;5045650;28;20234;-55
2022/06/15 12:23:06;;;;;;;4.43;2.20;;;29.50;99.90;;;;;;5044022;28;20576;-55
2022/06/15 12:26:03;;;;;;;3.73;1.70;;;29.50;99.90;;;;;;5046255;28;20238;-55
2022/06/15 12:28:35;;;;;;;4.43;1.87;;;28.70;99.90;;;;;;5045878;28;20245;-56
2022/06/15 12:31:22;;;;;;;4.93;2.00;;;28.30;99.90;;;;;;5046349;28;20569;-54
2022/06/15 12:34:01;;;;;;;5.60;1.90;;;29.00;99.90;;;;;;5045204;28;20260;-55
2022/06/15 12:36:39;;;;;;;8.30;2.13;;;29.30;99.90;;;;;;5045035;28;21580;-54
2022/06/15 12:39:19;;;;;;;4.07;1.80;;;28.70;99.90;;;;;;5047547;28;20250;-55
2022/06/15 12:44:51;;;;;;;3.90;2.00;;;28.20;99.90;;;;;;5043961;28;20652;-56
2022/06/15 12:47:21;;;;;;;7.33;1.87;;;28.00;99.90;;;;;;5050159;28;20200;-54
2022/06/15 12:50:12;;;;;;;4.70;2.23;;;28.90;99.90;;;;;;5032633;28;20215;-55
2022/06/15 12:53:06;;;;;;;13.70;3.27;;;27.80;99.90;;;;;;5050084;28;20294;-55
2022/06/15 12:55:45;;;;;;;3.47;1.90;;;29.50;99.90;;;;;;5035380;28;20200;-53
2022/06/15 12:58:42;;;;;;;16.67;2.73;;;30.10;99.90;;;;;;5055384;28;20207;-55
2022/06/15 13:01:25;;;;;;;6.33;2.40;;;30.10;99.90;;;;;;5037947;28;20204;-55
2022/06/15 13:04:12;;;;;;;13.90;2.63;;;29.60;99.90;;;;;;5048828;28;20570;-58
2022/06/15 13:06:42;;;;;;;5.93;2.03;;;28.70;99.90;;;;;;5049782;28;20257;-55
2022/06/15 13:09:18;;;;;;;4.87;2.10;;;29.20;99.90;;;;;;5049012;28;20235;-55
2022/06/15 13:11:57;;;;;;;3.43;1.83;;;29.40;99.90;;;;;;5049666;28;20310;-58
2022/06/15 13:14:26;;;;;;;6.17;2.43;;;29.30;99.90;;;;;;5049144;28;20602;-55
2022/06/15 13:17:16;;;;;;;5.33;2.13;;;29.20;99.90;;;;;;5055671;28;20234;-56
2022/06/15 13:19:52;;;;;;;3.63;1.52;;;29.00;99.90;;;;;;5052638;28;20224;-54
2022/06/15 13:22:23;;;;;;;13.43;2.58;;;29.80;99.90;;;;;;5054935;28;20237;-56
2022/06/15 13:24:55;;;;;;;7.28;2.10;;;29.30;99.90;;;;;;5048810;28;20253;-55
2022/06/15 13:27:34;;;;;;;4.78;2.03;;;28.60;99.90;;;;;;5048933;28;20216;-55
2022/06/15 13:30:21;;;;;;;4.07;2.13;;;28.70;99.90;;;;;;5047615;28;20580;-55
2022/06/15 13:32:51;;;;;;;5.07;2.00;;;28.80;99.90;;;;;;5031792;28;20270;-53
2022/06/15 13:35:27;;;;;;;4.65;1.98;;;29.30;99.90;;;;;;5032500;28;20230;-55
2022/06/15 13:38:01;;;;;;;3.67;2.10;;;29.40;99.90;;;;;;5035540;28;20251;-54
2022/06/15 13:41:14;;;;;;;3.60;1.75;;;27.80;99.90;;;;;;5033693;28;20226;-56
2022/06/15 13:43:46;;;;;;;4.80;2.03;;;28.10;99.90;;;;;;5035809;28;20200;-52
2022/06/15 13:46:30;;;;;;;3.63;1.67;;;28.20;99.90;;;;;;5043040;28;20204;-61
2022/06/15 13:49:14;;;;;;;4.40;3.00;;;27.70;99.90;;;;;;5044584;28;20236;-64